sensor_id;sensor_type;location;lat;lon;timestamp;P1;durP1;ratioP1;P2;durP2;ratioP2
39778;SDS011;25454;49.878;8.618;2022-07-10T00:04:16;5.43;;;4.47;;
39778;SDS011;25454;49.878;8.618;2022-07-10T00:09:18;4.60;;;4.20;;
39778;SDS011;25454;49.878;8.618;2022-07-10T00:14:19;5.70;;;4.63;;
39778;SDS011;25454;49.878;8.618;2022-07-10T00:19:20;5.77;;;3.70;;
39778;SDS011;25454;49.878;8.618;2022-07-10T00:24:20;4.10;;;3.70;;
39778;SDS011;25454;49.878;8.618;2022-07-10T00:29:21;4.67;;;4.27;;
39778;SDS011;25454;49.878;8.618;2022-07-10T00:34:22;5.30;;;4.60;;
39778;SDS011;25454;49.878;8.618;2022-07-10T00:39:25;4.37;;;3.97;;
39778;SDS011;25454;49.878;8.618;2022-07-10T00:44:26;6.37;;;5.30;;
39778;SDS011;25454;49.878;8.618;2022-07-10T00:49:28;4.80;;;4.17;;
39778;SDS011;25454;49.878;8.618;2022-07-10T00:54:29;4.20;;;3.80;;
39778;SDS011;25454;49.878;8.618;2022-07-10T00:59:30;6.00;;;3.97;;
39778;SDS011;25454;49.878;8.618;2022-07-10T01:04:32;4.23;;;3.73;;
39778;SDS011;25454;49.878;8.618;2022-07-10T01:09:33;7.53;;;4.47;;
39778;SDS011;25454;49.878;8.618;2022-07-10T01:14:34;4.33;;;3.83;;
39778;SDS011;25454;49.878;8.618;2022-07-10T01:19:35;4.27;;;3.90;;
39778;SDS011;25454;49.878;8.618;2022-07-10T01:24:36;4.37;;;3.70;;
39778;SDS011;25454;49.878;8.618;2022-07-10T01:29:37;4.93;;;3.80;;
39778;SDS011;25454;49.878;8.618;2022-07-10T01:34:38;4.73;;;4.17;;
39778;SDS011;25454;49.878;8.618;2022-07-10T01:39:39;4.97;;;3.60;;
39778;SDS011;25454;49.878;8.618;2022-07-10T01:44:40;4.53;;;3.60;;
39778;SDS011;25454;49.878;8.618;2022-07-10T01:49:43;4.97;;;3.40;;
39778;SDS011;25454;49.878;8.618;2022-07-10T01:54:44;3.60;;;3.10;;
39778;SDS011;25454;49.878;8.618;2022-07-10T01:59:45;4.33;;;2.30;;
39778;SDS011;25454;49.878;8.618;2022-07-10T02:04:45;4.03;;;2.80;;
39778;SDS011;25454;49.878;8.618;2022-07-10T02:09:46;3.27;;;2.30;;
39778;SDS011;25454;49.878;8.618;2022-07-10T02:14:47;6.33;;;2.40;;
39778;SDS011;25454;49.878;8.618;2022-07-10T02:19:47;4.30;;;2.10;;
39778;SDS011;25454;49.878;8.618;2022-07-10T02:24:48;3.60;;;2.37;;
39778;SDS011;25454;49.878;8.618;2022-07-10T02:29:48;2.93;;;1.87;;
39778;SDS011;25454;49.878;8.618;2022-07-10T02:34:49;3.70;;;1.90;;
39778;SDS011;25454;49.878;8.618;2022-07-10T02:39:50;2.33;;;1.57;;
39778;SDS011;25454;49.878;8.618;2022-07-10T02:44:50;2.53;;;1.60;;
39778;SDS011;25454;49.878;8.618;2022-07-10T02:49:51;3.30;;;2.13;;
39778;SDS011;25454;49.878;8.618;2022-07-10T02:54:52;3.50;;;1.67;;
39778;SDS011;25454;49.878;8.618;2022-07-10T02:59:53;5.70;;;2.27;;
39778;SDS011;25454;49.878;8.618;2022-07-10T03:04:53;4.90;;;1.80;;
39778;SDS011;25454;49.878;8.618;2022-07-10T03:09:54;3.33;;;1.83;;
39778;SDS011;25454;49.878;8.618;2022-07-10T03:14:55;4.97;;;1.93;;
39778;SDS011;25454;49.878;8.618;2022-07-10T03:19:55;5.30;;;1.83;;
39778;SDS011;25454;49.878;8.618;2022-07-10T03:24:56;3.20;;;1.63;;
39778;SDS011;25454;49.878;8.618;2022-07-10T03:29:56;3.80;;;1.80;;
39778;SDS011;25454;49.878;8.618;2022-07-10T03:34:57;3.67;;;1.40;;
39778;SDS011;25454;49.878;8.618;2022-07-10T03:39:58;4.53;;;1.80;;
39778;SDS011;25454;49.878;8.618;2022-07-10T03:45:01;3.10;;;1.57;;
39778;SDS011;25454;49.878;8.618;2022-07-10T03:50:02;4.13;;;1.60;;
39778;SDS011;25454;49.878;8.618;2022-07-10T03:55:03;6.03;;;1.63;;
39778;SDS011;25454;49.878;8.618;2022-07-10T04:00:05;2.93;;;1.77;;
39778;SDS011;25454;49.878;8.618;2022-07-10T04:05:06;5.73;;;1.70;;
39778;SDS011;25454;49.878;8.618;2022-07-10T04:10:08;3.77;;;1.70;;
39778;SDS011;25454;49.878;8.618;2022-07-10T04:15:09;4.33;;;1.70;;
39778;SDS011;25454;49.878;8.618;2022-07-10T04:20:11;4.93;;;1.50;;
39778;SDS011;25454;49.878;8.618;2022-07-10T04:25:15;3.00;;;1.50;;
39778;SDS011;25454;49.878;8.618;2022-07-10T04:30:16;3.07;;;1.37;;
39778;SDS011;25454;49.878;8.618;2022-07-10T04:35:16;3.60;;;1.50;;
39778;SDS011;25454;49.878;8.618;2022-07-10T04:40:17;4.13;;;1.53;;
39778;SDS011;25454;49.878;8.618;2022-07-10T04:45:18;5.03;;;1.80;;
39778;SDS011;25454;49.878;8.618;2022-07-10T04:50:18;3.80;;;1.50;;
39778;SDS011;25454;49.878;8.618;2022-07-10T04:55:19;2.50;;;1.10;;
39778;SDS011;25454;49.878;8.618;2022-07-10T05:00:21;3.50;;;1.50;;
39778;SDS011;25454;49.878;8.618;2022-07-10T05:05:22;3.70;;;1.30;;
39778;SDS011;25454;49.878;8.618;2022-07-10T05:10:22;4.20;;;1.20;;
39778;SDS011;25454;49.878;8.618;2022-07-10T05:15:23;4.57;;;1.13;;
39778;SDS011;25454;49.878;8.618;2022-07-10T05:20:24;4.27;;;1.30;;
39778;SDS011;25454;49.878;8.618;2022-07-10T05:25:24;4.63;;;1.43;;
39778;SDS011;25454;49.878;8.618;2022-07-10T05:30:26;4.63;;;1.30;;
39778;SDS011;25454;49.878;8.618;2022-07-10T05:35:27;3.57;;;1.10;;
39778;SDS011;25454;49.878;8.618;2022-07-10T05:40:27;3.60;;;1.50;;
39778;SDS011;25454;49.878;8.618;2022-07-10T05:45:28;3.77;;;1.50;;
39778;SDS011;25454;49.878;8.618;2022-07-10T05:50:29;1.37;;;0.80;;
39778;SDS011;25454;49.878;8.618;2022-07-10T05:55:30;2.73;;;1.20;;
39778;SDS011;25454;49.878;8.618;2022-07-10T06:00:30;5.00;;;1.40;;
39778;SDS011;25454;49.878;8.618;2022-07-10T06:05:31;4.27;;;1.10;;
39778;SDS011;25454;49.878;8.618;2022-07-10T06:10:32;3.33;;;1.00;;
39778;SDS011;25454;49.878;8.618;2022-07-10T06:15:32;3.33;;;1.20;;
39778;SDS011;25454;49.878;8.618;2022-07-10T06:20:33;5.00;;;1.33;;
39778;SDS011;25454;49.878;8.618;2022-07-10T06:25:33;2.93;;;1.20;;
39778;SDS011;25454;49.878;8.618;2022-07-10T06:30:34;4.00;;;1.00;;
39778;SDS011;25454;49.878;8.618;2022-07-10T06:35:35;2.77;;;0.77;;
39778;SDS011;25454;49.878;8.618;2022-07-10T06:40:36;2.20;;;0.97;;
39778;SDS011;25454;49.878;8.618;2022-07-10T06:45:38;3.87;;;1.13;;
39778;SDS011;25454;49.878;8.618;2022-07-10T06:50:39;4.23;;;1.10;;
39778;SDS011;25454;49.878;8.618;2022-07-10T06:55:40;2.20;;;0.90;;
39778;SDS011;25454;49.878;8.618;2022-07-10T07:00:41;5.27;;;1.20;;
39778;SDS011;25454;49.878;8.618;2022-07-10T07:05:41;1.47;;;0.60;;
39778;SDS011;25454;49.878;8.618;2022-07-10T07:10:45;4.87;;;1.30;;
39778;SDS011;25454;49.878;8.618;2022-07-10T07:15:46;2.63;;;1.03;;
39778;SDS011;25454;49.878;8.618;2022-07-10T07:20:55;3.63;;;1.13;;
39778;SDS011;25454;49.878;8.618;2022-07-10T07:26:14;3.10;;;0.90;;
39778;SDS011;25454;49.878;8.618;2022-07-10T07:31:15;3.73;;;1.23;;
39778;SDS011;25454;49.878;8.618;2022-07-10T07:36:17;2.90;;;1.07;;
39778;SDS011;25454;49.878;8.618;2022-07-10T07:41:18;3.23;;;1.13;;
39778;SDS011;25454;49.878;8.618;2022-07-10T07:46:19;3.33;;;0.80;;
39778;SDS011;25454;49.878;8.618;2022-07-10T07:51:20;4.00;;;1.10;;
39778;SDS011;25454;49.878;8.618;2022-07-10T07:56:21;2.27;;;0.90;;
39778;SDS011;25454;49.878;8.618;2022-07-10T08:01:21;2.73;;;0.90;;
39778;SDS011;25454;49.878;8.618;2022-07-10T08:06:22;1.97;;;0.97;;
39778;SDS011;25454;49.878;8.618;2022-07-10T08:11:23;1.83;;;0.70;;
39778;SDS011;25454;49.878;8.618;2022-07-10T08:16:23;2.40;;;0.70;;
39778;SDS011;25454;49.878;8.618;2022-07-10T08:21:24;3.70;;;0.87;;
39778;SDS011;25454;49.878;8.618;2022-07-10T08:26:25;2.67;;;0.90;;
39778;SDS011;25454;49.878;8.618;2022-07-10T08:31:26;4.00;;;1.00;;
39778;SDS011;25454;49.878;8.618;2022-07-10T08:36:26;2.40;;;0.70;;
39778;SDS011;25454;49.878;8.618;2022-07-10T08:41:27;1.77;;;0.70;;
39778;SDS011;25454;49.878;8.618;2022-07-10T08:46:29;1.47;;;0.60;;
39778;SDS011;25454;49.878;8.618;2022-07-10T08:51:36;2.07;;;1.00;;
39778;SDS011;25454;49.878;8.618;2022-07-10T08:56:52;2.53;;;0.93;;
39778;SDS011;25454;49.878;8.618;2022-07-10T09:01:53;3.13;;;1.10;;
39778;SDS011;25454;49.878;8.618;2022-07-10T09:06:54;4.03;;;1.00;;
39778;SDS011;25454;49.878;8.618;2022-07-10T09:11:58;5.33;;;0.83;;
39778;SDS011;25454;49.878;8.618;2022-07-10T09:16:59;2.10;;;0.70;;
39778;SDS011;25454;49.878;8.618;2022-07-10T09:22:05;3.10;;;1.10;;
39778;SDS011;25454;49.878;8.618;2022-07-10T09:27:07;2.53;;;0.90;;
39778;SDS011;25454;49.878;8.618;2022-07-10T09:32:08;4.03;;;0.87;;
39778;SDS011;25454;49.878;8.618;2022-07-10T09:42:30;3.00;;;1.03;;
39778;SDS011;25454;49.878;8.618;2022-07-10T09:47:32;3.23;;;0.93;;
39778;SDS011;25454;49.878;8.618;2022-07-10T09:52:32;3.37;;;1.10;;
39778;SDS011;25454;49.878;8.618;2022-07-10T09:57:34;2.87;;;0.90;;
39778;SDS011;25454;49.878;8.618;2022-07-10T10:02:35;3.23;;;1.00;;
39778;SDS011;25454;49.878;8.618;2022-07-10T10:07:36;4.03;;;1.00;;
39778;SDS011;25454;49.878;8.618;2022-07-10T10:12:46;3.43;;;1.30;;
39778;SDS011;25454;49.878;8.618;2022-07-10T10:17:54;2.70;;;0.90;;
39778;SDS011;25454;49.878;8.618;2022-07-10T10:22:55;2.93;;;0.80;;
39778;SDS011;25454;49.878;8.618;2022-07-10T10:28:00;2.90;;;1.10;;
39778;SDS011;25454;49.878;8.618;2022-07-10T10:33:32;3.17;;;1.10;;
39778;SDS011;25454;49.878;8.618;2022-07-10T10:44:41;2.80;;;1.03;;
39778;SDS011;25454;49.878;8.618;2022-07-10T10:49:17;2.30;;;1.00;;
39778;SDS011;25454;49.878;8.618;2022-07-10T10:54:19;3.97;;;1.40;;
39778;SDS011;25454;49.878;8.618;2022-07-10T11:10:26;2.97;;;1.23;;
39778;SDS011;25454;49.878;8.618;2022-07-10T11:15:31;3.13;;;1.43;;
39778;SDS011;25454;49.878;8.618;2022-07-10T11:20:38;3.30;;;1.33;;
39778;SDS011;25454;49.878;8.618;2022-07-10T11:25:51;4.50;;;1.23;;
39778;SDS011;25454;49.878;8.618;2022-07-10T11:31:07;2.97;;;1.30;;
39778;SDS011;25454;49.878;8.618;2022-07-10T11:36:11;3.60;;;1.53;;
39778;SDS011;25454;49.878;8.618;2022-07-10T11:41:24;4.30;;;1.13;;
39778;SDS011;25454;49.878;8.618;2022-07-10T11:46:27;4.37;;;1.13;;
39778;SDS011;25454;49.878;8.618;2022-07-10T11:51:30;3.53;;;1.40;;
39778;SDS011;25454;49.878;8.618;2022-07-10T11:56:32;2.83;;;1.10;;
39778;SDS011;25454;49.878;8.618;2022-07-10T12:01:40;5.03;;;1.37;;
39778;SDS011;25454;49.878;8.618;2022-07-10T12:06:41;2.53;;;1.13;;
39778;SDS011;25454;49.878;8.618;2022-07-10T12:11:44;2.67;;;1.20;;
39778;SDS011;25454;49.878;8.618;2022-07-10T12:16:59;3.90;;;1.10;;
39778;SDS011;25454;49.878;8.618;2022-07-10T12:22:00;4.70;;;1.33;;
39778;SDS011;25454;49.878;8.618;2022-07-10T12:27:02;2.47;;;1.00;;
39778;SDS011;25454;49.878;8.618;2022-07-10T12:32:03;3.47;;;1.17;;
39778;SDS011;25454;49.878;8.618;2022-07-10T12:37:10;5.20;;;1.40;;
39778;SDS011;25454;49.878;8.618;2022-07-10T12:42:12;4.70;;;1.40;;
39778;SDS011;25454;49.878;8.618;2022-07-10T12:47:15;12.87;;;1.50;;
39778;SDS011;25454;49.878;8.618;2022-07-10T12:52:23;2.10;;;0.90;;
39778;SDS011;25454;49.878;8.618;2022-07-10T12:57:32;5.03;;;1.33;;
39778;SDS011;25454;49.878;8.618;2022-07-10T13:02:32;3.70;;;1.00;;
39778;SDS011;25454;49.878;8.618;2022-07-10T13:07:33;2.53;;;1.00;;
39778;SDS011;25454;49.878;8.618;2022-07-10T13:12:35;4.00;;;1.30;;
39778;SDS011;25454;49.878;8.618;2022-07-10T13:17:43;3.13;;;1.10;;
39778;SDS011;25454;49.878;8.618;2022-07-10T13:22:44;3.43;;;1.20;;
39778;SDS011;25454;49.878;8.618;2022-07-10T13:27:45;2.57;;;1.20;;
39778;SDS011;25454;49.878;8.618;2022-07-10T13:32:46;3.30;;;1.10;;
39778;SDS011;25454;49.878;8.618;2022-07-10T13:37:47;2.43;;;0.87;;
39778;SDS011;25454;49.878;8.618;2022-07-10T13:42:47;3.07;;;1.00;;
39778;SDS011;25454;49.878;8.618;2022-07-10T13:47:48;2.97;;;1.07;;
39778;SDS011;25454;49.878;8.618;2022-07-10T13:52:49;3.67;;;0.80;;
39778;SDS011;25454;49.878;8.618;2022-07-10T13:57:50;3.67;;;0.97;;
39778;SDS011;25454;49.878;8.618;2022-07-10T14:02:50;1.83;;;0.90;;
39778;SDS011;25454;49.878;8.618;2022-07-10T14:07:51;3.60;;;1.17;;
39778;SDS011;25454;49.878;8.618;2022-07-10T14:12:52;3.27;;;0.97;;
39778;SDS011;25454;49.878;8.618;2022-07-10T14:17:53;1.80;;;0.80;;
39778;SDS011;25454;49.878;8.618;2022-07-10T14:22:55;2.03;;;0.63;;
39778;SDS011;25454;49.878;8.618;2022-07-10T14:27:55;2.40;;;1.03;;
39778;SDS011;25454;49.878;8.618;2022-07-10T14:32:56;1.33;;;0.77;;
39778;SDS011;25454;49.878;8.618;2022-07-10T14:37:57;2.10;;;0.60;;
39778;SDS011;25454;49.878;8.618;2022-07-10T14:42:57;1.60;;;0.80;;
39778;SDS011;25454;49.878;8.618;2022-07-10T14:47:58;1.53;;;0.70;;
39778;SDS011;25454;49.878;8.618;2022-07-10T14:52:59;2.17;;;0.80;;
39778;SDS011;25454;49.878;8.618;2022-07-10T14:58:05;1.97;;;0.80;;
39778;SDS011;25454;49.878;8.618;2022-07-10T15:03:06;2.47;;;1.07;;
39778;SDS011;25454;49.878;8.618;2022-07-10T15:08:08;2.07;;;0.50;;
39778;SDS011;25454;49.878;8.618;2022-07-10T15:13:09;2.23;;;1.10;;
39778;SDS011;25454;49.878;8.618;2022-07-10T15:18:09;3.13;;;0.80;;
39778;SDS011;25454;49.878;8.618;2022-07-10T15:23:11;0.50;;;0.47;;
39778;SDS011;25454;49.878;8.618;2022-07-10T15:28:12;3.73;;;0.63;;
39778;SDS011;25454;49.878;8.618;2022-07-10T15:33:13;4.17;;;0.80;;
39778;SDS011;25454;49.878;8.618;2022-07-10T15:38:14;2.60;;;0.80;;
39778;SDS011;25454;49.878;8.618;2022-07-10T15:43:14;2.70;;;0.60;;
39778;SDS011;25454;49.878;8.618;2022-07-10T15:48:15;2.90;;;0.70;;
39778;SDS011;25454;49.878;8.618;2022-07-10T15:53:16;1.93;;;0.53;;
39778;SDS011;25454;49.878;8.618;2022-07-10T15:58:16;1.40;;;0.90;;
39778;SDS011;25454;49.878;8.618;2022-07-10T16:03:17;1.23;;;0.77;;
39778;SDS011;25454;49.878;8.618;2022-07-10T16:08:18;1.87;;;0.73;;
39778;SDS011;25454;49.878;8.618;2022-07-10T16:13:20;1.13;;;0.60;;
39778;SDS011;25454;49.878;8.618;2022-07-10T16:18:21;0.57;;;0.50;;
39778;SDS011;25454;49.878;8.618;2022-07-10T16:23:21;1.33;;;0.37;;
39778;SDS011;25454;49.878;8.618;2022-07-10T16:28:22;1.27;;;0.50;;
39778;SDS011;25454;49.878;8.618;2022-07-10T16:33:23;2.20;;;0.90;;
39778;SDS011;25454;49.878;8.618;2022-07-10T16:38:24;0.60;;;0.40;;
39778;SDS011;25454;49.878;8.618;2022-07-10T16:43:25;1.07;;;0.97;;
39778;SDS011;25454;49.878;8.618;2022-07-10T16:48:30;2.27;;;1.07;;
39778;SDS011;25454;49.878;8.618;2022-07-10T16:53:33;1.23;;;0.70;;
39778;SDS011;25454;49.878;8.618;2022-07-10T16:58:37;0.80;;;0.70;;
39778;SDS011;25454;49.878;8.618;2022-07-10T17:03:37;1.47;;;0.90;;
39778;SDS011;25454;49.878;8.618;2022-07-10T17:08:38;1.23;;;0.80;;
39778;SDS011;25454;49.878;8.618;2022-07-10T17:13:39;1.23;;;1.13;;
39778;SDS011;25454;49.878;8.618;2022-07-10T17:54:25;1.60;;;1.50;;
39778;SDS011;25454;49.878;8.618;2022-07-10T17:59:26;2.10;;;1.60;;
39778;SDS011;25454;49.878;8.618;2022-07-10T18:04:27;2.37;;;1.60;;
39778;SDS011;25454;49.878;8.618;2022-07-10T18:09:28;1.97;;;1.83;;
39778;SDS011;25454;49.878;8.618;2022-07-10T18:14:29;1.70;;;1.60;;
39778;SDS011;25454;49.878;8.618;2022-07-10T18:19:29;2.60;;;1.33;;
39778;SDS011;25454;49.878;8.618;2022-07-10T18:24:30;3.53;;;2.10;;
39778;SDS011;25454;49.878;8.618;2022-07-10T18:29:31;1.80;;;1.70;;
39778;SDS011;25454;49.878;8.618;2022-07-10T18:34:31;2.03;;;1.83;;
39778;SDS011;25454;49.878;8.618;2022-07-10T18:39:33;3.43;;;2.40;;
39778;SDS011;25454;49.878;8.618;2022-07-10T18:44:34;4.67;;;2.40;;
39778;SDS011;25454;49.878;8.618;2022-07-10T18:49:35;2.20;;;1.90;;
39778;SDS011;25454;49.878;8.618;2022-07-10T18:54:35;2.73;;;1.53;;
39778;SDS011;25454;49.878;8.618;2022-07-10T18:59:37;1.40;;;1.40;;
39778;SDS011;25454;49.878;8.618;2022-07-10T19:04:38;3.23;;;1.87;;
39778;SDS011;25454;49.878;8.618;2022-07-10T19:09:38;3.17;;;1.40;;
39778;SDS011;25454;49.878;8.618;2022-07-10T19:14:39;1.30;;;1.20;;
39778;SDS011;25454;49.878;8.618;2022-07-10T19:19:40;2.47;;;1.57;;
39778;SDS011;25454;49.878;8.618;2022-07-10T19:24:41;1.83;;;1.47;;
39778;SDS011;25454;49.878;8.618;2022-07-10T19:29:42;1.37;;;1.27;;
39778;SDS011;25454;49.878;8.618;2022-07-10T19:34:43;2.90;;;1.50;;
39778;SDS011;25454;49.878;8.618;2022-07-10T19:39:46;2.30;;;1.40;;
39778;SDS011;25454;49.878;8.618;2022-07-10T19:44:48;2.00;;;1.53;;
39778;SDS011;25454;49.878;8.618;2022-07-10T19:49:49;1.60;;;1.50;;
39778;SDS011;25454;49.878;8.618;2022-07-10T19:54:51;1.97;;;1.63;;
39778;SDS011;25454;49.878;8.618;2022-07-10T19:59:52;5.67;;;1.90;;
39778;SDS011;25454;49.878;8.618;2022-07-10T20:04:55;1.67;;;1.57;;
39778;SDS011;25454;49.878;8.618;2022-07-10T20:09:55;4.03;;;2.07;;
39778;SDS011;25454;49.878;8.618;2022-07-10T20:14:56;4.17;;;2.07;;
39778;SDS011;25454;49.878;8.618;2022-07-10T20:19:57;3.60;;;2.27;;
39778;SDS011;25454;49.878;8.618;2022-07-10T20:24:57;2.30;;;2.10;;
39778;SDS011;25454;49.878;8.618;2022-07-10T20:29:59;2.43;;;2.23;;
39778;SDS011;25454;49.878;8.618;2022-07-10T20:35:00;2.50;;;2.30;;
39778;SDS011;25454;49.878;8.618;2022-07-10T20:40:00;2.87;;;2.30;;
39778;SDS011;25454;49.878;8.618;2022-07-10T20:45:02;2.47;;;2.27;;
39778;SDS011;25454;49.878;8.618;2022-07-10T20:50:03;4.37;;;2.80;;
39778;SDS011;25454;49.878;8.618;2022-07-10T20:55:05;4.73;;;2.50;;
39778;SDS011;25454;49.878;8.618;2022-07-10T21:00:08;4.13;;;2.50;;
39778;SDS011;25454;49.878;8.618;2022-07-10T21:05:11;2.57;;;2.37;;
39778;SDS011;25454;49.878;8.618;2022-07-10T21:10:14;2.70;;;2.50;;
39778;SDS011;25454;49.878;8.618;2022-07-10T21:15:35;4.23;;;2.63;;
39778;SDS011;25454;49.878;8.618;2022-07-10T21:20:36;3.43;;;2.30;;
39778;SDS011;25454;49.878;8.618;2022-07-10T21:25:37;4.03;;;2.77;;
39778;SDS011;25454;49.878;8.618;2022-07-10T21:30:38;6.13;;;2.57;;
39778;SDS011;25454;49.878;8.618;2022-07-10T21:35:38;2.77;;;2.50;;
39778;SDS011;25454;49.878;8.618;2022-07-10T21:40:39;5.70;;;2.57;;
39778;SDS011;25454;49.878;8.618;2022-07-10T21:45:40;3.23;;;2.50;;
39778;SDS011;25454;49.878;8.618;2022-07-10T21:50:40;3.13;;;2.30;;
39778;SDS011;25454;49.878;8.618;2022-07-10T21:55:41;2.70;;;1.97;;
39778;SDS011;25454;49.878;8.618;2022-07-10T22:00:42;3.67;;;2.57;;
39778;SDS011;25454;49.878;8.618;2022-07-10T22:05:43;4.87;;;2.77;;
39778;SDS011;25454;49.878;8.618;2022-07-10T22:10:43;2.77;;;2.57;;
39778;SDS011;25454;49.878;8.618;2022-07-10T22:15:44;5.17;;;2.50;;
39778;SDS011;25454;49.878;8.618;2022-07-10T22:20:44;4.10;;;2.70;;
39778;SDS011;25454;49.878;8.618;2022-07-10T22:25:45;3.80;;;2.50;;
39778;SDS011;25454;49.878;8.618;2022-07-10T22:30:46;3.50;;;2.47;;
39778;SDS011;25454;49.878;8.618;2022-07-10T22:36:06;2.83;;;2.37;;
39778;SDS011;25454;49.878;8.618;2022-07-10T22:41:07;5.27;;;2.90;;
39778;SDS011;25454;49.878;8.618;2022-07-10T22:46:08;2.87;;;2.30;;
39778;SDS011;25454;49.878;8.618;2022-07-10T22:51:09;4.97;;;2.57;;
39778;SDS011;25454;49.878;8.618;2022-07-10T22:56:10;3.47;;;2.50;;
39778;SDS011;25454;49.878;8.618;2022-07-10T23:01:10;4.87;;;2.20;;
39778;SDS011;25454;49.878;8.618;2022-07-10T23:06:12;3.73;;;2.10;;
39778;SDS011;25454;49.878;8.618;2022-07-10T23:11:13;6.27;;;2.70;;
39778;SDS011;25454;49.878;8.618;2022-07-10T23:16:14;3.13;;;2.13;;
39778;SDS011;25454;49.878;8.618;2022-07-10T23:21:15;3.73;;;2.20;;
39778;SDS011;25454;49.878;8.618;2022-07-10T23:26:16;4.07;;;2.20;;
39778;SDS011;25454;49.878;8.618;2022-07-10T23:31:16;3.63;;;2.20;;
39778;SDS011;25454;49.878;8.618;2022-07-10T23:36:17;2.80;;;2.20;;
39778;SDS011;25454;49.878;8.618;2022-07-10T23:41:17;2.27;;;2.03;;
39778;SDS011;25454;49.878;8.618;2022-07-10T23:46:18;4.60;;;2.20;;
39778;SDS011;25454;49.878;8.618;2022-07-10T23:51:19;1.87;;;1.77;;
39778;SDS011;25454;49.878;8.618;2022-07-10T23:56:19;2.70;;;2.20;;
